• Join FlightAware (Why Join?)
  • Login
  • US Flag GB Flag 
06:33 EST


 

Airport Tracker/Info


-or-


 

Live Flight TrackerFlight Track Log ✈ SWG26 ✈ 07-Apr-2014 ✈ CYYZ - KPIE

Flight Track Log - Related Links

Times and Time Zones

All times are in EDT time to prevent confusion due to time zone crossing. See the SWG26 flight status page for this flight to view local times or setup timezone preferences in your user account.

Time Position Orientation Groundspeed Altitude Reporting Facility
EDT Latitude Longitude Course Direction KTS MPH feet Rate Location/Type
06:48 43.6773 -79.5999 46° Northeast 158 182 1,000  Level FlightAware ADS-B (CYYZ)
06:48 43.6808 -79.5951 43° Northeast 159 183 1,400 2,760 Climbing FlightAware ADS-B (EPWA / WAW)
06:48 43.6854 -79.5893 42° Northeast 164 189 1,700 1,800 Climbing FlightAware ADS-B (CYYZ)
06:48 43.6941 -79.5782 43° Northeast 177 204 2,100 1,500 Climbing FlightAware ADS-B (CYYZ)
06:48 43.6996 -79.5709 44° Northeast 194 223 2,300 1,260 Climbing FlightAware ADS-B (EPWA / WAW)
06:48 43.7037 -79.5655 44° Northeast 202 232 2,400 1,500 Climbing FlightAware ADS-B (CYYZ)
06:49 43.7122 -79.5540 44° Northeast 214 246 2,800 2,280 Climbing FlightAware ADS-B (EPWA / WAW)
06:49 43.7251 -79.5372 43° Northeast 212 244 3,600 3,300 Climbing FlightAware ADS-B (CYYZ)
06:49 43.7281 -79.5332 44° Northeast 214 246 3,900 3,600 Climbing FlightAware ADS-B (EPWA / WAW)
06:49 43.7318 -79.5279 48° Northeast 212 244 4,200 3,000 Climbing FlightAware ADS-B (CYYZ)
06:49 43.7345 -79.5226 59° Northeast 212 244 4,400 3,300 Climbing FlightAware ADS-B (CYYZ)
06:49 43.7363 -79.5173 66° East 212 244 4,700 2,700 Climbing FlightAware ADS-B (CYYZ)
06:49 43.7376 -79.5094 81° East 211 243 4,900 2,400 Climbing FlightAware ADS-B (CYYZ)
06:49 43.7376 -79.5027 91° East 211 243 5,100 2,640 Climbing FlightAware ADS-B (CYYZ)
06:49 43.7367 -79.4958 103° East 212 244 5,300 3,000 Climbing FlightAware ADS-B (CYYZ)
06:49 43.7371 -79.4979 106° East 213 245 5,400 1,980 Climbing FlightAware ADS-B (EPWA / WAW)
06:49 43.7350 -79.4897 116° Southeast 216 249 5,500 1,980 Climbing FlightAware ADS-B (CYYZ)
06:50 43.7325 -79.4840 125° Southeast 220 253 5,700 1,800 Climbing FlightAware ADS-B (CYYZ)
06:50 43.7288 -79.4782 135° Southeast 228 262 5,800 960 Climbing FlightAware ADS-B (CYYZ)
06:50 43.7240 -79.4722 139° Southeast 239 275 5,900 780 Climbing FlightAware ADS-B (EPWA / WAW)
06:50 43.7164 -79.4631 139° Southeast 251 289 6,000 1,560 Climbing FlightAware ADS-B (CYYZ)
06:50 43.7071 -79.4536 148° Southeast 260 299 6,400 2,160 Climbing FlightAware ADS-B (CYYZ)
06:50 43.7060 -79.4527 151° Southeast 261 300 6,400 3,000 Level FlightAware ADS-B (EPWA / WAW)
06:50 43.7011 -79.4500 162° South 262 302 6,600 3,000 Climbing FlightAware ADS-B (CYYZ)
06:50 43.6954 -79.4484 174° South 263 303 6,800 2,700 Climbing FlightAware ADS-B (CYYZ)
06:50 43.6891 -79.4485 186° South 263 303 7,100 3,600 Climbing FlightAware ADS-B (CYYZ)
06:50 43.6831 -79.4498 192° South 263 303 7,400 3,300 Climbing FlightAware ADS-B (CYYZ)
06:50 43.6772 -79.4522 200° South 264 304 7,600 2,700 Climbing FlightAware ADS-B (CYYZ)
06:51 43.6716 -79.4555 205° Southwest 266 306 7,900 3,000 Climbing FlightAware ADS-B (CYYZ)
06:51 43.6680 -79.4578 206° Southwest 267 307 8,100 3,000 Climbing FlightAware ADS-B (CYKF)
06:51 43.6550 -79.4665 206° Southwest 271 312 8,600 2,820 Climbing FlightAware ADS-B (CYYZ)
06:51 43.6409 -79.4753 203° Southwest 275 316 9,200 2,580 Climbing FlightAware ADS-B (EPWA / WAW)
06:51 43.6376 -79.4772 203° Southwest 275 316 9,300 2,760 Climbing FlightAware ADS-B (CYYZ)
06:52 43.6008 -79.4952 198° South 289 333 10,700 2,700 Climbing FlightAware ADS-B (CYYZ)
06:52 43.6128 -79.4897 198° South 294 338 10,800 960 Climbing FlightAware ADS-B (CYKF)
06:52 43.5588 -79.5130 197° South 335 386 11,200 1,020 Climbing FlightAware ADS-B (CYYZ)
06:52 43.5482 -79.5174 197° South 342 394 11,400 2,760 Climbing FlightAware ADS-B (EPWA / WAW)
06:53 43.5135 -79.5321 198° South 344 396 12,600 3,060 Climbing FlightAware ADS-B (CYYZ)
06:53 43.4672 -79.5517 198° South 354 407 14,100 3,060 Climbing FlightAware ADS-B (CYYZ)
06:54 43.4201 -79.5721 198° South 360 414 15,700 3,120 Climbing FlightAware ADS-B (CYYZ)
06:54 43.4403 -79.5634 198° South 362 417 15,900 2,760 Climbing FlightAware ADS-B (CYKF)
06:54 43.3736 -79.5922 198° South 372 428 17,100 2,580 Climbing FlightAware ADS-B (CYYZ)
06:54 43.3636 -79.5965 198° South 375 432 17,300 2,580 Climbing FlightAware ADS-B
06:55 43.3217 -79.6146 198° South 380 437 18,400 2,760 Climbing FlightAware ADS-B (CYYZ)
06:55 43.2948 -79.6262 198° South 388 447 19,100 2,700 Climbing FlightAware ADS-B
06:55 43.2704 -79.6366 198° South 389 448 19,800 3,060 Climbing FlightAware ADS-B (CYYZ)
06:55 43.2482 -79.6461 197° South 387 445 20,700 3,480 Climbing FlightAware ADS-B
06:56 43.2221 -79.6573 198° South 376 433 21,500 2,400 Climbing FlightAware ADS-B (CYYZ)
06:56 43.1921 -79.6702 198° South 371 427 21,900 1,200 Climbing FlightAware ADS-B
06:56 43.1709 -79.6793 198° South 370 426 22,100 900 Climbing FlightAware ADS-B (CYYZ)
06:56 43.1292 -79.6974 198° South 375 432 22,500 960 Climbing FlightAware ADS-B
06:57 43.1209 -79.7009 198° South 375 432 22,600 1,020 Climbing FlightAware ADS-B (CYYZ)
06:57 43.0713 -79.7222 198° South 381 438 23,100 1,140 Climbing FlightAware ADS-B (CYYZ)
06:57 43.0611 -79.7264 197° South 382 440 23,300 2,220 Climbing FlightAware ADS-B
06:58 43.0211 -79.7434 198° South 387 445 24,200 2,160 Climbing FlightAware ADS-B (CYYZ)
06:58 43.0091 -79.7485 197° South 390 449 24,400 1,800 Climbing FlightAware ADS-B
06:58 42.9678 -79.7626 190° South 404 465 25,100 1,680 Climbing FlightAware ADS-B (CYYZ)
06:58 42.9391 -79.7689 189° South 409 471 25,500 1,740 Climbing FlightAware ADS-B
06:59 42.9117 -79.7749 190° South 413 475 26,000 2,340 Climbing FlightAware ADS-B (CYYZ)
06:59 42.8615 -79.7857 189° South 411 473 27,100 2,580 Climbing FlightAware ADS-B
06:59 42.8540 -79.7872 189° South 409 471 27,300 2,460 Climbing FlightAware ADS-B (CYYZ)
07:00 42.7990 -79.7989 190° South 399 459 28,500 1,680 Climbing FlightAware ADS-B (CYYZ)
07:00 42.7450 -79.8107 190° South 389 448 29,000 600 Climbing FlightAware ADS-B (CYYZ)
07:00 42.7201 -79.8162 189° South 389 448 29,000  Level FlightAware ADS-B
07:01 42.6736 -79.8264 190° South 398 458 29,000  Level FlightAware ADS-B (CYYZ)
07:01 42.6427 -79.8331 189° South 406 467 29,000  Level FlightAware ADS-B
07:01 42.6181 -79.8384 189° South 411 473 29,000  Level FlightAware ADS-B (CYYZ)
07:02 42.5626 -79.8502 189° South 410 472 29,000  Level FlightAware ADS-B (CYYZ)
07:02 42.5952 -79.8433 189° South 410 472 29,000 600 Level FlightAware ADS-B
07:02 42.5059 -79.8624 189° South 411 473 29,300 1,200 Climbing FlightAware ADS-B (CYYZ)
07:02 42.4887 -79.8660 189° South 411 473 29,800 960 Climbing FlightAware ADS-B (CYKF)
07:03 42.4490 -79.8744 189° South 410 472 29,800 720 Level FlightAware ADS-B (CYYZ)
07:03 42.3940 -79.8861 190° South 408 470 30,400 1,200 Climbing FlightAware ADS-B (CYYZ)
07:04 42.3377 -79.8978 189° South 396 456 31,000 1,080 Climbing FlightAware ADS-B (CYYZ)
07:04 42.2843 -79.9091 189° South 388 447 31,500 840 Climbing FlightAware ADS-B (CYYZ)
07:05 42.2327 -79.9195 186° South 388 447 31,900 420 Climbing FlightAware ADS-B (CYYZ)
07:05 42.1586 -79.9241 183° South 394 453 32,000 60 Climbing FlightAware ADS-B (CYYZ)
07:06 42.1048 -79.9268 183° South 397 457 32,000  Level FlightAware ADS-B (CYYZ)
07:06 42.0485 -79.9298 183° South 399 459 32,000  Level FlightAware ADS-B (CYYZ)
07:06 42.0396 -79.9303 182° South 400 460 32,000  Level FlightAware ADS-B (CYKF)
07:07 41.9930 -79.9328 183° South 400 460 32,000  Level FlightAware ADS-B (CYYZ)
07:07 41.9375 -79.9360 183° South 401 461 32,000  Level FlightAware ADS-B (CYYZ)
07:08 42.0396 -79.9303 182° South 401 461 32,000  Level FlightAware ADS-B (CYKF)
07:08 41.8822 -79.9391 183° South 401 461 32,000  Level FlightAware ADS-B (CYYZ)
07:08 41.8269 -79.9421 183° South 401 461 32,000  Level FlightAware ADS-B (CYYZ)
07:09 41.7705 -79.9452 183° South 402 463 32,000  Level FlightAware ADS-B (CYYZ)
07:09 41.7150 -79.9481 183° South 402 463 32,000  Level FlightAware ADS-B (CYYZ)
07:10 41.6590 -79.9511 183° South 401 461 32,000  Level FlightAware ADS-B (CYYZ)
07:10 41.6037 -79.9542 183° South 402 463 32,000  Level FlightAware ADS-B (CYYZ)
07:11 41.5475 -79.9572 183° South 403 464 32,000  Level FlightAware ADS-B (CYYZ)
07:11 41.4918 -79.9601 183° South 405 466 32,000  Level FlightAware ADS-B (CYYZ)
07:12 41.4371 -79.9631 183° South 406 467 32,000  Level FlightAware ADS-B (CYYZ)
07:12 41.3784 -79.9663 183° South 408 470 32,000  Level FlightAware ADS-B (CYYZ)
07:13 41.3426 -79.9683 182° South 409 471 32,000  Level FlightAware ADS-B (EPWA / WAW)
07:13 41.3225 -79.9694 183° South 410 472 32,000  Level FlightAware ADS-B (CYYZ)
07:13 41.2651 -79.9724 183° South 413 475 32,000  Level FlightAware ADS-B (CYYZ)
07:14 41.2082 -79.9754 183° South 413 475 32,000  Level FlightAware ADS-B (CYYZ)
07:14 41.1554 -79.9783 183° South 413 475 32,000  Level FlightAware ADS-B (CYYZ)
07:15 41.0928 -79.9816 183° South 413 475 32,000  Level FlightAware ADS-B (CYYZ)
07:15 41.0409 -79.9844 183° South 413 475 32,000  Level FlightAware ADS-B (CYYZ)
07:16 40.9807 -79.9874 183° South 410 472 32,000  Level FlightAware ADS-B (CYYZ)
07:16 40.9230 -79.9904 183° South 406 467 32,000  Level FlightAware ADS-B (CYYZ)
07:17 40.8677 -79.9934 183° South 401 461 32,000  Level FlightAware ADS-B (CYYZ)
07:17 40.8122 -79.9965 183° South 390 449 32,000  Level FlightAware ADS-B (CYYZ)
07:18 40.7888 -79.9975 182° South 389 448 32,000  Level FlightAware ADS-B (CYYZ)
07:19 40.6471 -80.0054 182° South 387 445 32,000  Level FlightAware ADS-B
07:19 40.5944 -80.0081 182° South 388 447 32,000  Level FlightAware ADS-B
07:20 40.4851 -80.0136 182° South 388 447 32,000  Level FlightAware ADS-B
07:21 40.4072 -80.0177 182° South 387 445 32,000  Level FlightAware ADS-B
07:22 40.3269 -80.0219 182° South 388 447 32,000  Level FlightAware ADS-B
07:22 40.2623 -80.0253 182° South 389 448 32,000  Level FlightAware ADS-B
07:23 40.2085 -80.0281 182° South 391 450 32,000  Level FlightAware ADS-B
07:24 40.1304 -80.0321 182° South 395 455 32,000  Level FlightAware ADS-B
07:25 40.0083 -80.0375 182° South 395 455 32,000  Level Cleveland Center
07:26 39.8969 -80.0439 183° South 399 459 32,000  Level Cleveland Center
07:27 39.7856 -80.0486 182° South 400 460 32,000 600 Level Cleveland Center
07:28 39.6533 -80.0550 182° South 400 460 33,300 960 Climbing Cleveland Center
07:29 39.5464 -80.0603 182° South 390 449 34,000 300 Climbing Cleveland Center
07:30 39.4394 -80.0672 183° South 386 444 34,000  Level Cleveland Center
07:31 39.3303 -80.0725 182° South 389 448 34,000  Level Cleveland Center
07:32 39.2200 -80.0786 182° South 394 453 34,000  Level Cleveland Center
07:33 39.1089 -80.0831 182° South 402 463 34,000  Level Washington Center
07:34 38.9856 -80.0942 184° South 407 468 34,000  Level Washington Center
07:35 38.8850 -80.1042 184° South 407 468 34,000  Level Washington Center
07:36 38.7836 -80.1406 196° South 395 455 34,000  Level Washington Center
07:37 38.6800 -80.1767 195° South 395 455 34,000  Level Washington Center
07:38 38.5603 -80.2100 192° South 382 440 34,000  Level Cleveland Center
07:39 38.4644 -80.2508 198° South 385 443 34,000  Level Washington Center
07:40 38.3631 -80.2842 194° South 385 443 34,000  Level Washington Center
07:41 38.2575 -80.3197 195° South 385 443 34,000  Level Washington Center
07:42 38.1539 -80.3556 195° South 385 443 34,000  Level Washington Center
07:43 38.0606 -80.3892 196° South 385 443 34,000  Level Washington Center
07:44 37.9550 -80.4244 195° South 385 443 34,000  Level Washington Center
07:45 37.8533 -80.4600 195° South 385 443 34,000  Level Washington Center
07:46 37.7497 -80.4956 195° South 385 443 34,000  Level Washington Center
07:48 37.5519 -80.5603 195° South 384 442 34,000  Level Atlanta Center
07:49 37.4486 -80.5964 196° South 384 442 34,000  Level Atlanta Center
07:50 37.3433 -80.6297 194° South 389 448 34,000  Level Atlanta Center
07:51 37.2381 -80.6656 195° South 394 453 34,000  Level Atlanta Center
07:52 37.1431 -80.6956 194° South 394 453 34,000  Level Atlanta Center
07:53 37.0331 -80.7211 191° South 394 453 34,000  Level Atlanta Center
07:54 36.9189 -80.7336 185° South 400 460 34,000  Level Atlanta Center
07:55 36.8067 -80.7461 185° South 411 473 34,000  Level Atlanta Center
07:56 36.6817 -80.7564 184° South 403 464 34,000  Level Atlanta Center
07:57 36.5675 -80.7689 185° South 408 470 34,000  Level Atlanta Center
07:58 36.4531 -80.7814 185° South 413 475 34,000  Level Atlanta Center
07:59 36.3367 -80.7939 185° South 419 482 34,000  Level Atlanta Center
08:00 36.2200 -80.8064 185° South 424 488 34,000  Level Atlanta Center
08:01 36.1017 -80.8211 186° South 424 488 34,000  Level Atlanta Center
08:02 35.9850 -80.8336 185° South 424 488 34,000  Level Atlanta Center
08:03 35.8686 -80.8433 184° South 424 488 34,000  Level Atlanta Center
08:04 35.7500 -80.8556 185° South 424 488 34,000  Level Atlanta Center
08:05 35.6461 -80.8675 185° South 424 488 34,000  Level Atlanta Center
08:06 35.5294 -80.8794 185° South 424 488 34,000  Level Atlanta Center
08:07 35.4108 -80.8917 185° South 424 488 34,000  Level Atlanta Center
08:08 35.2944 -80.9064 186° South 424 488 34,000  Level Atlanta Center
08:09 35.1778 -80.9183 185° South 424 488 34,000  Level Atlanta Center
08:10 35.0592 -80.9331 186° South 424 488 34,000  Level Atlanta Center
08:15 34.4275 -80.9957 186° South 34,000  Level FlightAware ADS-B (KCDN)
08:16 34.3335 -81.0127 197° South 425 489 34,000  Level FlightAware ADS-B (KCDN)
08:17 34.2714 -81.0384 199° South 425 489 34,000  Level FlightAware ADS-B (KCDN)
08:17 34.2149 -81.0623 199° South 427 491 34,000  Level FlightAware ADS-B (KCDN)
08:18 34.1326 -81.0970 199° South 430 495 34,000  Level FlightAware ADS-B (KCDN)
08:18 34.0738 -81.1215 199° South 431 496 34,000  Level FlightAware ADS-B (KCDN)
08:19 33.9875 -81.1576 199° South 430 495 34,000  Level FlightAware ADS-B (KCDN)
08:20 33.8919 -81.1989 199° South 430 495 34,000  Level Jacksonville Center
08:21 33.7797 -81.2458 199° South 430 495 34,000 -480 Level Jacksonville Center
08:22 33.6636 -81.2931 199° South 430 495 33,100 -900 Descending Jacksonville Center
08:23 33.5472 -81.3425 199° South 436 502 32,200 -600 Descending Jacksonville Center
08:24 33.4331 -81.3867 198° South 441 507 32,000 -120 Descending Jacksonville Center
08:25 33.3189 -81.4358 200° South 441 507 32,000  Level Jacksonville Center
08:26 33.2044 -81.4825 199° South 441 507 32,000  Level Jacksonville Center
08:27 33.0903 -81.5289 199° South 441 507 32,000  Level Jacksonville Center
08:28 32.9758 -81.5753 199° South 441 507 32,000  Level Jacksonville Center
08:29 32.8617 -81.6239 200° South 441 507 32,000  Level Jacksonville Center
08:30 32.7494 -81.6700 199° South 441 507 32,000  Level Jacksonville Center
08:31 32.6369 -81.7158 199° South 434 499 32,000  Level Jacksonville Center
08:32 32.5183 -81.7469 192° South 434 499 32,000  Level Jacksonville Center
08:33 32.4078 -81.7706 190° South 441 507 32,000  Level Jacksonville Center
08:34 32.2786 -81.7992 191° South 441 507 32,000  Level Jacksonville Center
08:35 32.1703 -81.8225 190° South 446 513 32,000  Level Jacksonville Center
08:36 32.0392 -81.8486 190° South 446 513 32,000  Level Jacksonville Center
08:37 31.9203 -81.8769 191° South 446 513 32,000  Level Jacksonville Center
08:38 31.8139 -81.8975 189° South 446 513 32,000  Level Jacksonville Center
08:39 31.6828 -81.9258 190° South 446 513 32,000  Level Jacksonville Center
08:40 31.5617 -81.9489 189° South 446 513 32,000  Level Jacksonville Center
08:41 31.4408 -81.9769 191° South 446 513 32,000  Level Jacksonville Center
08:42 31.3219 -82.0025 190° South 452 520 32,000  Level Jacksonville Center
08:43 31.2031 -82.0303 191° South 444 511 32,000  Level Jacksonville Center
08:49 30.5213 -82.1666 190° South 433 498 32,000  Level FlightAware ADS-B (KMCO)
08:50 30.3469 -82.2028 190° South 432 497 32,000  Level FlightAware ADS-B (KMCO)
08:51 30.2513 -82.2227 190° South 431 496 32,000  Level FlightAware ADS-B (KMCO)
08:51 30.1940 -82.2344 190° South 431 496 32,000 -600 Level FlightAware ADS-B (KMCO)
08:52 30.0879 -82.2563 190° South 431 496 31,200 -960 Descending FlightAware ADS-B (KMCO)
08:53 30.0273 -82.2688 190° South 431 496 30,700 -1,020 Descending FlightAware ADS-B (KMCO)
08:53 29.9502 -82.2846 190° South 425 489 30,000 -600 Descending FlightAware ADS-B (KMCO)
08:54 29.8896 -82.2969 190° South 423 487 30,000  Level FlightAware ADS-B (KMCO)
08:55 29.8323 -82.3087 190° South 422 486 30,000  Level FlightAware ADS-B (KMCO)
08:55 29.7692 -82.3216 190° South 422 486 30,000 -420 Level FlightAware ADS-B (KMCO)
08:56 29.7100 -82.3336 190° South 416 479 29,600 -1,620 Descending FlightAware ADS-B (KMCO)
08:56 29.6530 -82.3453 190° South 406 467 28,400 -2,280 Descending FlightAware ADS-B (KMCO)
08:57 29.5789 -82.3556 181° South 405 466 27,000 -1,320 Descending FlightAware ADS-B (KMCO)
08:57 29.5233 -82.3512 174° South 402 463 26,900 -780 Descending FlightAware ADS-B (KMCO)
08:58 29.4355 -82.3409 174° South 404 465 26,000 -960 Descending FlightAware ADS-B (KMCO)
08:59 29.3628 -82.3324 174° South 417 480 25,600 -1,800 Descending FlightAware ADS-B (KMCO)
08:59 29.2921 -82.3240 174° South 420 483 23,800 -2,880 Descending FlightAware ADS-B (KMCO)
09:00 29.2395 -82.3173 174° South 415 478 22,400 -2,880 Descending FlightAware ADS-B (KMCO)
09:01 29.1194 -82.3028 174° South 399 459 19,500 -2,520 Descending FlightAware ADS-B (KMCO)
09:02 29.0322 -82.2928 174° South 381 438 17,800 -2,280 Descending FlightAware ADS-B (KMCO)
09:02 28.9627 -82.2843 174° South 370 426 16,200 -2,160 Descending FlightAware ADS-B (KMCO)
09:03 28.8958 -82.2762 174° South 348 400 15,000 -1,380 Descending FlightAware ADS-B (KMCO)
09:03 28.8444 -82.2703 174° South 320 368 14,500 -1,080 Descending FlightAware ADS-B (KMCO)
09:04 28.7656 -82.2612 174° South 295 339 13,400 -1,080 Descending FlightAware ADS-B (KMCO)
09:06 28.6386 -82.2565 178° South 319 367 11,800 -1,140 Descending FlightAware ADS-B (KMCO)
09:06 28.6100 -82.2652 213° Southwest 284 327 11,100 -1,800 Descending FlightAware ADS-B (KMCO)
09:07 28.5999 -82.2763 234° Southwest 283 326 10,800 -300 Descending FlightAware ADS-B (KMCO)
09:11 28.4442 -82.6050 217° Southwest 268 308 9,800 -480 Descending FlightAware ADS-B (KMCO)
09:12 28.4000 -82.6500 217° Southwest 268 308 8,600 -1,440 Descending Tampa TRACON
09:13 28.3333 -82.7000 213° Southwest 262 302 7,100 -1,500 Descending Tampa TRACON
09:14 28.2667 -82.7167 192° South 255 293 5,700 -1,500 Descending Tampa TRACON
09:15 28.2000 -82.7167 180° South 248 285 4,300 -1,140 Descending Tampa TRACON
09:16 28.1333 -82.7167 180° South 239 275 3,600 -660 Descending Tampa TRACON
09:17 28.0833 -82.7000 164° South 196 226 3,100 -600 Descending Tampa TRACON
09:18 28.0333 -82.7000 180° South 156 180 2,400 -840 Descending Tampa TRACON
09:19 28.0000 -82.7000 180° South 122 140 1,400 -840 Descending Tampa TRACON
09:20 27.9667 -82.7000 180° South 119 137 800 -600 Descending Tampa TRACON
09:22 27.9100 -82.6875 169° South  Level Estimated
09:29 27.9100 -82.6875 North  Level Estimated
09:30 27.9100 -82.6875 310° West  Level Estimated